createdAt,value
2023-06-20T00:00:51.511Z,75.44
2023-06-20T00:03:20.320Z,75.27
2023-06-20T00:05:48.387Z,75.42
2023-06-20T00:08:19.069Z,75.38
2023-06-20T00:10:47.537Z,75.50
2023-06-20T00:13:19.225Z,75.43
2023-06-20T00:15:47.886Z,75.46
2023-06-20T00:18:18.894Z,75.48
2023-06-20T00:20:51.367Z,75.64
2023-06-20T00:23:26.464Z,75.65
2023-06-20T00:26:01.454Z,75.84
2023-06-20T00:28:31.781Z,75.70
2023-06-20T00:31:00.581Z,75.79
2023-06-20T00:33:28.906Z,75.84
2023-06-20T00:35:58.944Z,75.89
2023-06-20T00:38:30.608Z,75.94
2023-06-20T00:40:59.024Z,75.93
2023-06-20T00:43:28.153Z,76.00
2023-06-20T00:45:59.032Z,75.95
2023-06-20T00:48:29.472Z,75.91
2023-06-20T00:51:03.372Z,75.83
2023-06-20T00:53:32.057Z,75.99
2023-06-20T00:56:01.752Z,75.81
2023-06-20T00:58:33.195Z,76.03
2023-06-20T01:01:06.742Z,76.15
2023-06-20T01:03:39.240Z,76.26
2023-06-20T01:06:50.564Z,76.49
2023-06-20T01:09:31.220Z,76.72
2023-06-20T01:12:08.472Z,76.62
2023-06-20T01:15:00.426Z,76.73
2023-06-20T01:17:52.404Z,76.99
2023-06-20T01:20:26.421Z,77.10
2023-06-20T01:23:03.542Z,77.11
2023-06-20T01:25:55.944Z,77.37
2023-06-20T01:28:29.845Z,77.41
2023-06-20T01:31:13.996Z,77.43
2023-06-20T01:33:58.686Z,77.59
2023-06-20T01:36:32.624Z,77.70
2023-06-20T01:39:07.870Z,77.63
2023-06-20T01:41:39.456Z,77.68
2023-06-20T01:44:10.527Z,77.61
2023-06-20T01:46:38.611Z,77.65
2023-06-20T01:49:08.689Z,77.63
2023-06-20T01:51:36.948Z,77.61
2023-06-20T01:54:05.969Z,77.81
2023-06-20T01:56:35.111Z,77.71
2023-06-20T01:59:04.664Z,77.69
2023-06-20T02:01:33.965Z,77.78
2023-06-20T02:04:03.612Z,77.76
2023-06-20T02:06:32.132Z,77.54
2023-06-20T02:09:01.138Z,77.62
2023-06-20T02:11:29.944Z,77.75
2023-06-20T02:14:00.521Z,77.63
2023-06-20T02:16:29.976Z,77.75
2023-06-20T02:18:58.173Z,77.63
2023-06-20T02:21:29.460Z,77.80
2023-06-20T02:23:57.586Z,77.90
2023-06-20T02:26:30.772Z,77.95
2023-06-20T02:29:05.352Z,77.82
2023-06-20T02:31:37.571Z,77.93
2023-06-20T02:34:08.479Z,78.01
2023-06-20T02:36:38.277Z,78.15
2023-06-20T02:39:06.268Z,77.91
2023-06-20T02:41:34.423Z,78.01
2023-06-20T02:44:02.391Z,78.14
2023-06-20T02:47:07.592Z,78.22
2023-06-20T02:49:48.043Z,78.40
2023-06-20T02:52:33.400Z,78.25
2023-06-20T02:55:36.517Z,78.30
2023-06-20T02:58:13.792Z,78.31
2023-06-20T03:00:53.502Z,78.27
2023-06-20T03:03:33.438Z,78.22
2023-06-20T03:06:03.014Z,78.26
2023-06-20T03:08:32.408Z,78.41
2023-06-20T03:11:01.878Z,78.53
2023-06-20T03:13:30.142Z,78.57
2023-06-20T03:15:59.064Z,78.44
2023-06-20T03:18:30.430Z,78.43
2023-06-20T03:20:58.830Z,78.33
2023-06-20T03:23:27.352Z,78.45
2023-06-20T03:25:56.926Z,78.50
2023-06-20T03:28:25.799Z,78.34
2023-06-20T03:30:55.931Z,78.35
2023-06-20T03:33:26.453Z,78.44
2023-06-20T03:35:55.329Z,78.34
2023-06-20T03:38:23.302Z,78.41
2023-06-20T03:40:52.980Z,78.54
2023-06-20T03:43:21.433Z,78.51
2023-06-20T03:45:49.501Z,78.57
2023-06-20T03:48:20.367Z,78.68
2023-06-20T03:50:48.765Z,78.70
2023-06-20T03:53:18.734Z,78.62
2023-06-20T03:55:46.717Z,78.62
2023-06-20T03:58:15.315Z,78.65
2023-06-20T04:00:45.363Z,78.66
2023-06-20T04:03:13.482Z,78.57
2023-06-20T04:05:41.546Z,78.39
2023-06-20T04:08:11.366Z,78.31
2023-06-20T04:10:39.552Z,78.21
2023-06-20T04:13:07.573Z,78.26
2023-06-20T04:15:35.750Z,78.28
2023-06-20T04:18:04.102Z,78.22
2023-06-20T04:20:32.194Z,78.29
2023-06-20T04:23:00.732Z,78.14
2023-06-20T04:25:29.046Z,78.24
2023-06-20T04:27:58.110Z,78.05
2023-06-20T04:30:32.985Z,77.86
2023-06-20T04:33:02.125Z,77.81
2023-06-20T04:35:33.093Z,77.77
2023-06-20T04:38:04.441Z,77.75
2023-06-20T04:40:32.414Z,77.52
2023-06-20T04:43:03.171Z,77.60
2023-06-20T04:45:33.076Z,77.63
2023-06-20T04:48:03.541Z,77.39
2023-06-20T04:50:32.037Z,77.23
2023-06-20T04:53:00.276Z,77.43
2023-06-20T04:55:28.869Z,77.45
2023-06-20T04:58:06.331Z,77.52
2023-06-20T05:00:38.638Z,77.61
2023-06-20T05:03:10.724Z,77.47
2023-06-20T05:05:41.037Z,77.49
2023-06-20T05:08:10.409Z,77.24
2023-06-20T05:10:38.684Z,77.43
2023-06-20T05:13:06.905Z,77.22
2023-06-20T05:15:35.039Z,77.19
2023-06-20T05:18:03.241Z,77.27
2023-06-20T05:20:31.252Z,77.08
2023-06-20T05:23:03.053Z,77.04
2023-06-20T05:25:31.331Z,76.82
2023-06-20T05:27:59.408Z,76.48
2023-06-20T05:30:27.859Z,76.15
2023-06-20T05:32:56.636Z,75.83
2023-06-20T05:35:24.695Z,75.60
2023-06-20T05:37:53.010Z,75.74
2023-06-20T05:40:20.890Z,75.86
2023-06-20T05:42:49.000Z,75.38
2023-06-20T05:45:17.081Z,75.35
2023-06-20T05:47:47.674Z,75.25
2023-06-20T05:50:15.931Z,75.22
2023-06-20T05:52:44.054Z,75.10
2023-06-20T05:55:12.283Z,75.26
2023-06-20T05:57:40.342Z,75.36
2023-06-20T06:00:13.706Z,75.47
2023-06-20T06:02:48.116Z,75.47
2023-06-20T06:05:16.433Z,75.65
2023-06-20T06:07:47.241Z,75.67
2023-06-20T06:10:15.235Z,75.85
2023-06-20T06:12:46.445Z,76.13
2023-06-20T06:15:14.622Z,76.40
2023-06-20T06:17:43.843Z,76.56
2023-06-20T06:20:18.771Z,76.78
2023-06-20T06:22:47.564Z,76.50
2023-06-20T06:25:15.785Z,76.33
2023-06-20T06:27:44.094Z,76.11
2023-06-20T06:30:12.273Z,76.15
2023-06-20T06:32:40.616Z,76.04
2023-06-20T06:35:11.192Z,75.84
2023-06-20T06:37:41.471Z,75.48
2023-06-20T06:40:10.736Z,75.62
2023-06-20T06:42:39.694Z,75.75
2023-06-20T06:45:09.776Z,75.66
2023-06-20T06:47:37.930Z,75.89
2023-06-20T06:50:07.396Z,75.66
2023-06-20T06:52:38.157Z,74.95
2023-06-20T06:55:06.605Z,74.71
2023-06-20T06:57:34.608Z,73.54
2023-06-20T07:00:02.595Z,71.04
2023-06-20T07:02:30.635Z,69.67
2023-06-20T07:04:58.840Z,67.21
2023-06-20T07:07:29.070Z,66.41
2023-06-20T07:09:59.712Z,65.73
2023-06-20T07:12:27.729Z,66.10
2023-06-20T07:14:57.546Z,67.36
2023-06-20T07:17:26.440Z,67.05
2023-06-20T07:19:54.927Z,65.69
2023-06-20T07:22:23.352Z,63.88
2023-06-20T07:24:53.898Z,63.17
2023-06-20T07:27:23.522Z,59.60
2023-06-20T07:29:51.518Z,58.38
2023-06-20T07:32:20.144Z,56.93
2023-06-20T07:34:49.708Z,55.98
2023-06-20T07:37:18.004Z,55.53
2023-06-20T07:39:55.242Z,56.19
2023-06-20T07:42:25.785Z,56.38
2023-06-20T07:44:53.976Z,56.86
2023-06-20T07:47:22.276Z,57.65
2023-06-20T07:49:52.167Z,57.57
2023-06-20T07:52:20.219Z,59.06
2023-06-20T07:54:48.346Z,59.98
2023-06-20T07:57:16.478Z,60.66
2023-06-20T07:59:44.954Z,60.84
2023-06-20T08:02:13.350Z,58.09
2023-06-20T08:04:41.626Z,55.92
2023-06-20T08:07:10.910Z,56.41
2023-06-20T08:09:39.087Z,57.62
2023-06-20T08:12:08.005Z,59.17
2023-06-20T08:14:38.283Z,60.46
2023-06-20T08:17:06.703Z,61.84
2023-06-20T08:19:34.997Z,62.56
2023-06-20T08:22:03.121Z,62.95
2023-06-20T08:24:31.271Z,63.54
2023-06-20T08:26:59.490Z,63.26
2023-06-20T08:29:27.658Z,62.53
2023-06-20T08:31:55.938Z,62.21
2023-06-20T08:34:24.089Z,61.79
2023-06-20T08:36:53.093Z,62.57
2023-06-20T08:39:22.395Z,63.11
2023-06-20T08:41:51.722Z,62.66
2023-06-20T08:44:21.139Z,62.69
2023-06-20T08:46:58.144Z,63.14
2023-06-20T08:49:26.507Z,63.95
2023-06-20T08:51:57.497Z,62.29
2023-06-20T08:54:31.183Z,61.26
2023-06-20T08:57:01.014Z,61.34
2023-06-20T08:59:29.383Z,62.39
2023-06-20T09:01:57.627Z,63.59
2023-06-20T09:04:29.270Z,63.13
2023-06-20T09:06:57.709Z,62.64
2023-06-20T09:09:26.593Z,62.51
2023-06-20T09:12:00.135Z,61.13
2023-06-20T09:14:30.284Z,61.17
2023-06-20T09:16:58.582Z,61.13
2023-06-20T09:19:26.750Z,60.93
2023-06-20T09:22:12.988Z,60.20
2023-06-20T09:24:46.673Z,63.47
2023-06-20T09:27:15.310Z,62.28
2023-06-20T09:29:54.013Z,60.52
2023-06-20T09:32:24.498Z,60.51
2023-06-20T09:34:54.437Z,60.71
2023-06-20T09:37:24.064Z,60.60
2023-06-20T09:39:52.016Z,60.17
2023-06-20T09:42:21.006Z,58.66
2023-06-20T09:44:48.949Z,59.25
2023-06-20T09:47:17.225Z,58.48
2023-06-20T09:49:45.826Z,57.88
2023-06-20T09:52:16.239Z,58.65
2023-06-20T09:55:02.516Z,59.38
2023-06-20T09:57:37.887Z,58.95
2023-06-20T10:00:12.970Z,59.10
2023-06-20T10:02:45.133Z,58.60
2023-06-20T10:05:16.118Z,58.87
2023-06-20T10:07:49.092Z,59.25
2023-06-20T10:10:18.783Z,57.27
2023-06-20T10:12:48.563Z,58.37
2023-06-20T10:15:17.598Z,58.42
2023-06-20T10:17:47.922Z,59.83
2023-06-20T10:20:28.453Z,59.73
2023-06-20T10:23:03.265Z,59.19
2023-06-20T10:25:31.407Z,58.55
2023-06-20T10:28:10.913Z,58.36
2023-06-20T10:30:50.301Z,58.93
2023-06-20T10:33:38.767Z,59.65
2023-06-20T10:36:10.932Z,59.04
2023-06-20T10:39:00.712Z,59.62
2023-06-20T10:41:30.018Z,59.75
2023-06-20T10:43:59.866Z,58.68
2023-06-20T10:46:36.926Z,59.51
2023-06-20T10:49:05.918Z,59.65
2023-06-20T10:51:45.084Z,59.03
2023-06-20T10:54:14.544Z,58.28
2023-06-20T10:56:45.224Z,58.71
2023-06-20T10:59:15.372Z,59.25
2023-06-20T11:01:43.525Z,59.47
2023-06-20T11:04:13.391Z,60.09
2023-06-20T11:06:42.570Z,60.54
2023-06-20T11:09:24.470Z,60.29
2023-06-20T11:11:53.019Z,60.02
2023-06-20T11:14:23.040Z,59.26
2023-06-20T11:16:52.858Z,58.27
2023-06-20T11:19:36.772Z,56.75
2023-06-20T11:22:05.963Z,56.73
2023-06-20T11:24:36.982Z,57.80
2023-06-20T11:27:16.298Z,56.93
2023-06-20T11:29:46.877Z,56.24
2023-06-20T11:32:15.361Z,56.26
2023-06-20T11:35:00.697Z,56.59
2023-06-20T11:37:29.570Z,55.42
2023-06-20T11:39:57.780Z,55.38
2023-06-20T11:42:26.048Z,56.06
2023-06-20T11:44:54.012Z,57.18
2023-06-20T11:47:22.384Z,56.26
2023-06-20T11:49:50.511Z,56.19
2023-06-20T11:52:30.649Z,55.76
2023-06-20T11:55:00.214Z,56.18
2023-06-20T11:57:30.203Z,56.52
2023-06-20T12:00:15.783Z,55.88
2023-06-20T12:02:44.358Z,56.53
2023-06-20T12:05:17.201Z,57.32
2023-06-20T12:07:54.729Z,57.84
2023-06-20T12:10:25.766Z,57.62
2023-06-20T12:12:54.105Z,57.60
2023-06-20T12:15:22.916Z,56.91
2023-06-20T12:17:51.154Z,57.10
2023-06-20T12:20:34.000Z,57.62
2023-06-20T12:23:04.084Z,56.49
2023-06-20T12:25:33.327Z,56.77
2023-06-20T12:28:04.503Z,56.11
2023-06-20T12:30:32.603Z,56.64
2023-06-20T12:33:01.337Z,56.26
2023-06-20T12:35:33.096Z,56.54
2023-06-20T12:38:01.337Z,56.23
2023-06-20T12:40:29.309Z,56.67
2023-06-20T12:42:57.496Z,57.19
2023-06-20T12:45:25.505Z,57.12
2023-06-20T12:47:53.569Z,56.26
2023-06-20T12:50:22.010Z,56.01
2023-06-20T12:52:50.606Z,54.36
2023-06-20T12:55:19.004Z,53.17
2023-06-20T12:57:47.476Z,53.50
2023-06-20T13:00:16.496Z,53.86
2023-06-20T13:02:44.605Z,53.42
2023-06-20T13:05:12.848Z,53.78
2023-06-20T13:07:42.032Z,54.27
2023-06-20T13:10:10.779Z,53.83
2023-06-20T13:12:40.123Z,53.41
2023-06-20T13:15:09.165Z,53.11
2023-06-20T13:17:38.648Z,52.84
2023-06-20T13:20:07.789Z,52.74
2023-06-20T13:22:35.868Z,53.32
2023-06-20T13:25:04.826Z,52.67
2023-06-20T13:27:33.660Z,52.65
2023-06-20T13:30:01.779Z,53.17
2023-06-20T13:32:30.179Z,52.41
2023-06-20T13:34:58.493Z,53.20
2023-06-20T13:37:26.645Z,53.34
2023-06-20T13:39:54.639Z,53.30
2023-06-20T13:42:22.699Z,52.87
2023-06-20T13:44:50.973Z,52.74
2023-06-20T13:47:19.387Z,52.14
2023-06-20T13:49:47.581Z,51.80
2023-06-20T13:52:15.631Z,52.77
2023-06-20T13:54:43.906Z,53.25
2023-06-20T13:57:12.026Z,52.40
2023-06-20T13:59:42.143Z,51.83
2023-06-20T14:02:11.969Z,51.79
2023-06-20T14:04:40.335Z,51.53
2023-06-20T14:07:08.526Z,51.67
2023-06-20T14:09:37.012Z,51.66
2023-06-20T14:12:09.008Z,50.79
2023-06-20T14:14:37.112Z,50.97
2023-06-20T14:17:05.701Z,50.06
2023-06-20T14:19:35.559Z,50.46
2023-06-20T14:22:04.005Z,51.10
2023-06-20T14:24:32.963Z,50.08
2023-06-20T14:27:01.616Z,49.26
2023-06-20T14:29:29.967Z,49.44
2023-06-20T14:31:58.291Z,49.95
2023-06-20T14:34:27.244Z,50.44
2023-06-20T14:36:58.146Z,50.25
2023-06-20T14:39:28.145Z,50.02
2023-06-20T14:41:56.506Z,49.08
2023-06-20T14:44:25.177Z,48.40
2023-06-20T14:46:53.702Z,47.88
2023-06-20T14:49:24.435Z,46.59
2023-06-20T14:51:53.271Z,46.16
2023-06-20T14:54:21.784Z,45.93
2023-06-20T14:56:50.450Z,46.73
2023-06-20T14:59:18.812Z,47.03
2023-06-20T15:01:47.383Z,47.53
2023-06-20T15:04:18.873Z,48.00
2023-06-20T15:06:48.085Z,48.97
2023-06-20T15:09:17.146Z,49.38
2023-06-20T15:11:45.657Z,49.27
2023-06-20T15:14:21.128Z,49.61
2023-06-20T15:16:50.925Z,49.66
2023-06-20T15:19:19.309Z,49.45
2023-06-20T15:21:47.490Z,49.81
2023-06-20T15:24:15.618Z,50.42
2023-06-20T15:26:43.653Z,50.39
2023-06-20T15:29:13.636Z,50.58
2023-06-20T15:31:42.422Z,51.34
2023-06-20T15:34:13.025Z,51.40
2023-06-20T15:36:41.185Z,51.60
2023-06-20T15:39:09.256Z,51.56
2023-06-20T15:41:37.299Z,51.92
2023-06-20T15:44:05.673Z,52.31
2023-06-20T15:46:44.440Z,52.50
2023-06-20T15:49:21.223Z,52.52
2023-06-20T15:51:49.407Z,52.80
2023-06-20T15:54:17.416Z,52.68
2023-06-20T15:56:45.522Z,53.08
2023-06-20T15:59:13.924Z,53.26
2023-06-20T16:01:42.205Z,53.45
2023-06-20T16:04:10.922Z,53.67
2023-06-20T16:06:39.121Z,53.86
2023-06-20T16:09:07.353Z,53.91
2023-06-20T16:11:36.012Z,54.22
2023-06-20T16:14:06.726Z,54.34
2023-06-20T16:16:41.914Z,55.16
2023-06-20T16:19:13.321Z,55.72
2023-06-20T16:21:41.846Z,58.53
2023-06-20T16:24:10.526Z,66.89
2023-06-20T16:26:40.117Z,75.66
2023-06-20T16:29:09.701Z,81.60
2023-06-20T16:31:40.253Z,84.74
2023-06-20T16:34:08.584Z,86.38
2023-06-20T16:36:36.786Z,88.38
2023-06-20T16:39:04.885Z,91.12
2023-06-20T16:41:33.041Z,92.27
2023-06-20T16:44:01.141Z,89.80
2023-06-20T16:46:29.421Z,89.63
2023-06-20T16:49:06.812Z,88.26
2023-06-20T16:51:35.668Z,89.21
2023-06-20T16:54:04.463Z,87.53
2023-06-20T16:56:52.047Z,89.08
2023-06-20T16:59:23.959Z,89.05
2023-06-20T17:01:52.444Z,89.14
2023-06-20T17:04:23.411Z,89.04
2023-06-20T17:06:52.078Z,89.45
2023-06-20T17:09:24.606Z,89.12
2023-06-20T17:11:52.776Z,90.11
2023-06-20T17:14:21.172Z,90.52
2023-06-20T17:16:49.965Z,90.53
2023-06-20T17:19:18.565Z,90.99
2023-06-20T17:21:52.501Z,91.88
2023-06-20T17:24:30.982Z,92.55
2023-06-20T17:26:59.429Z,93.65
2023-06-20T17:29:27.632Z,93.66
2023-06-20T17:31:59.358Z,93.48
2023-06-20T17:34:27.689Z,93.32
2023-06-20T17:36:56.195Z,93.23
2023-06-20T17:39:24.651Z,93.99
2023-06-20T17:41:52.820Z,95.41
2023-06-20T17:44:21.142Z,95.54
2023-06-20T17:46:56.019Z,95.14
2023-06-20T17:49:25.333Z,94.70
2023-06-20T17:51:55.803Z,95.03
2023-06-20T17:54:24.740Z,95.42
2023-06-20T17:56:53.276Z,92.93
2023-06-20T17:59:21.820Z,91.26
2023-06-20T18:01:50.831Z,88.76
2023-06-20T18:04:19.279Z,87.68
2023-06-20T18:06:47.623Z,87.68
2023-06-20T18:09:16.596Z,88.33
2023-06-20T18:11:46.275Z,88.34
2023-06-20T18:14:16.884Z,87.67
2023-06-20T18:16:45.602Z,87.39
2023-06-20T18:19:16.805Z,86.25
2023-06-20T18:21:46.493Z,87.46
2023-06-20T18:24:15.070Z,86.32
2023-06-20T18:26:43.735Z,85.60
2023-06-20T18:29:12.684Z,84.91
2023-06-20T18:31:41.048Z,84.38
2023-06-20T18:34:09.658Z,84.29
2023-06-20T18:36:37.695Z,83.39
2023-06-20T18:39:05.870Z,83.16
2023-06-20T18:41:34.111Z,83.75
2023-06-20T18:44:10.928Z,83.56
2023-06-20T18:46:49.357Z,82.82
2023-06-20T18:49:24.744Z,86.48
2023-06-20T18:51:55.863Z,88.42
2023-06-20T18:54:24.289Z,90.39
2023-06-20T18:56:52.442Z,91.60
2023-06-20T18:59:20.786Z,91.36
2023-06-20T19:01:54.225Z,91.71
2023-06-20T19:04:22.993Z,92.44
2023-06-20T19:06:53.145Z,92.75
2023-06-20T19:09:30.083Z,92.35
2023-06-20T19:11:59.307Z,93.05
2023-06-20T19:14:27.534Z,93.32
2023-06-20T19:16:58.237Z,93.81
2023-06-20T19:19:26.721Z,93.63
2023-06-20T19:21:55.377Z,94.31
2023-06-20T19:24:24.148Z,94.21
2023-06-20T19:26:52.574Z,94.79
2023-06-20T19:29:21.466Z,94.76
2023-06-20T19:31:49.914Z,94.08
2023-06-20T19:34:18.783Z,94.81
2023-06-20T19:36:48.498Z,94.63
2023-06-20T19:39:20.097Z,95.23
2023-06-20T19:41:48.985Z,91.99
2023-06-20T19:44:18.825Z,89.47
2023-06-20T19:46:47.444Z,89.70
2023-06-20T19:49:15.989Z,87.63
2023-06-20T19:51:46.151Z,84.83
2023-06-20T19:54:14.405Z,83.68
2023-06-20T19:56:43.092Z,83.40
2023-06-20T19:59:11.129Z,82.31
2023-06-20T20:01:40.646Z,82.58
2023-06-20T20:04:08.897Z,81.93
2023-06-20T20:06:36.980Z,84.63
2023-06-20T20:09:06.129Z,85.96
2023-06-20T20:11:36.614Z,85.07
2023-06-20T20:14:04.814Z,87.41
2023-06-20T20:16:32.907Z,89.07
2023-06-20T20:19:04.334Z,89.99
2023-06-20T20:21:35.289Z,86.91
2023-06-20T20:24:03.415Z,85.34
2023-06-20T20:26:31.419Z,84.15
2023-06-20T20:28:59.320Z,85.65
2023-06-20T20:31:27.407Z,84.64
2023-06-20T20:33:55.445Z,83.88
2023-06-20T20:36:23.423Z,84.26
2023-06-20T20:38:51.669Z,83.71
2023-06-20T20:41:21.032Z,82.98
2023-06-20T20:43:49.419Z,86.25
2023-06-20T20:46:20.997Z,86.93
2023-06-20T20:48:53.114Z,86.51
2023-06-20T20:51:21.695Z,86.81
2023-06-20T20:53:49.601Z,85.58
2023-06-20T20:56:17.738Z,84.33
2023-06-20T20:58:45.665Z,85.04
2023-06-20T21:01:13.869Z,84.62
2023-06-20T21:03:42.396Z,85.01
2023-06-20T21:06:12.388Z,86.36
2023-06-20T21:08:40.621Z,85.78
2023-06-20T21:11:08.656Z,85.73
2023-06-20T21:13:36.571Z,87.09
2023-06-20T21:16:04.649Z,85.96
2023-06-20T21:18:32.643Z,85.08
2023-06-20T21:21:00.559Z,84.57
2023-06-20T21:23:28.439Z,84.82
2023-06-20T21:25:56.507Z,84.73
2023-06-20T21:28:25.805Z,84.77
2023-06-20T21:30:54.015Z,84.88
2023-06-20T21:33:22.071Z,83.87
2023-06-20T21:35:50.348Z,84.66
2023-06-20T21:38:18.315Z,84.91
2023-06-20T21:40:47.072Z,85.33
2023-06-20T21:43:14.935Z,87.79
2023-06-20T21:45:43.031Z,89.14
2023-06-20T21:48:11.993Z,90.61
2023-06-20T21:50:40.520Z,90.23
2023-06-20T21:53:10.727Z,91.21
2023-06-20T21:55:40.866Z,91.60
2023-06-20T21:58:08.936Z,92.61
2023-06-20T22:00:36.998Z,92.86
2023-06-20T22:03:05.812Z,92.82
2023-06-20T22:05:33.822Z,93.45
2023-06-20T22:08:01.795Z,93.86
2023-06-20T22:10:30.185Z,93.91
2023-06-20T22:12:59.599Z,93.57
2023-06-20T22:15:28.002Z,93.87
2023-06-20T22:17:56.541Z,92.80
2023-06-20T22:20:25.138Z,91.37
2023-06-20T22:22:53.470Z,89.39
2023-06-20T22:25:21.558Z,91.10
2023-06-20T22:27:49.593Z,91.28
2023-06-20T22:30:17.550Z,90.47
2023-06-20T22:32:45.503Z,92.09
2023-06-20T22:35:13.559Z,93.94
2023-06-20T22:37:42.385Z,95.16
2023-06-20T22:40:10.794Z,95.92
2023-06-20T22:42:39.047Z,97.01
2023-06-20T22:45:07.623Z,97.36
2023-06-20T22:47:36.486Z,97.67
2023-06-20T22:50:04.830Z,97.76
2023-06-20T22:52:32.866Z,97.97
2023-06-20T22:55:00.881Z,98.13
2023-06-20T22:57:28.759Z,98.21
2023-06-20T22:59:56.780Z,98.34
2023-06-20T23:02:25.181Z,98.41
2023-06-20T23:04:53.233Z,98.59
2023-06-20T23:07:21.199Z,98.62
2023-06-20T23:09:49.351Z,99.06
2023-06-20T23:12:17.291Z,99.04
2023-06-20T23:14:45.261Z,99.05
2023-06-20T23:17:13.196Z,99.24
2023-06-20T23:19:41.052Z,99.09
2023-06-20T23:22:09.123Z,99.16
2023-06-20T23:24:37.078Z,99.21
2023-06-20T23:27:05.383Z,99.36
2023-06-20T23:29:33.366Z,99.54
2023-06-20T23:32:01.195Z,99.60
2023-06-20T23:34:30.750Z,99.60
2023-06-20T23:36:58.905Z,99.65
2023-06-20T23:39:26.883Z,99.84
2023-06-20T23:41:55.056Z,99.90
2023-06-20T23:44:23.206Z,99.93
2023-06-20T23:46:52.447Z,99.99
2023-06-20T23:49:20.932Z,99.99
2023-06-20T23:51:48.968Z,99.99
2023-06-20T23:54:16.995Z,99.99
2023-06-20T23:56:44.932Z,99.99
2023-06-20T23:59:14.797Z,99.99
